createdAt,value
2016-08-08T00:00:34.723Z,21.88
2016-08-08T00:01:26.148Z,21.89
2016-08-08T00:02:27.657Z,21.89
2016-08-08T00:03:15.273Z,21.88
2016-08-08T00:04:26.425Z,21.88
2016-08-08T00:05:26.785Z,21.92
2016-08-08T00:06:24.201Z,21.87
2016-08-08T00:07:16.835Z,21.87
2016-08-08T00:08:12.871Z,21.87
2016-08-08T00:09:33.024Z,21.87
2016-08-08T00:10:32.820Z,21.87
2016-08-08T00:11:27.652Z,21.87
2016-08-08T00:12:25.488Z,21.86
2016-08-08T00:13:23.213Z,21.86
2016-08-08T00:14:23.829Z,21.85
2016-08-08T00:15:23.686Z,21.85
2016-08-08T00:16:33.399Z,21.85
2016-08-08T00:17:28.873Z,21.85
2016-08-08T00:18:16.449Z,21.89
2016-08-08T00:19:26.636Z,21.88
2016-08-08T00:20:33.581Z,21.86
2016-08-08T00:21:26.326Z,21.84
2016-08-08T00:22:23.851Z,21.84
2016-08-08T00:23:14.535Z,21.84
2016-08-08T00:24:15.651Z,21.84
2016-08-08T00:25:31.197Z,21.84
2016-08-08T00:26:23.966Z,21.83
2016-08-08T00:27:23.636Z,21.82
2016-08-08T00:28:15.334Z,21.83
2016-08-08T00:29:19.280Z,21.82
2016-08-08T00:30:31.686Z,21.83
2016-08-08T00:31:28.527Z,21.83
2016-08-08T00:32:30.192Z,21.82
2016-08-08T00:33:20.146Z,21.83
2016-08-08T00:34:25.806Z,21.83
2016-08-08T00:35:29.191Z,21.82
2016-08-08T00:36:29.113Z,21.82
2016-08-08T00:37:28.510Z,21.83
2016-08-08T00:38:14.223Z,21.82
2016-08-08T00:39:15.842Z,21.85
2016-08-08T00:40:26.584Z,21.82
2016-08-08T00:41:17.284Z,21.82
2016-08-08T00:42:33.439Z,21.82
2016-08-08T00:43:33.949Z,21.82
2016-08-08T00:44:22.836Z,21.82
2016-08-08T00:45:18.538Z,21.88
2016-08-08T00:46:14.076Z,21.82
2016-08-08T00:47:30.146Z,21.85
2016-08-08T00:48:21.509Z,21.82
2016-08-08T00:49:28.064Z,21.82
2016-08-08T00:50:12.944Z,21.82
2016-08-08T00:51:19.770Z,21.81
2016-08-08T00:52:12.467Z,21.81
2016-08-08T00:53:19.748Z,21.81
2016-08-08T00:54:17.589Z,21.82
2016-08-08T00:55:12.281Z,21.81
2016-08-08T00:56:13.597Z,21.81
2016-08-08T00:57:14.159Z,21.81
2016-08-08T00:58:15.917Z,21.80
2016-08-08T00:59:12.597Z,21.81
2016-08-08T01:00:23.833Z,21.80
2016-08-08T01:01:22.231Z,21.80
2016-08-08T01:02:28.048Z,21.80
2016-08-08T01:03:21.517Z,21.82
2016-08-08T01:04:22.516Z,21.80
2016-08-08T01:05:22.514Z,21.80
2016-08-08T01:06:21.715Z,21.80
2016-08-08T01:07:31.423Z,21.80
2016-08-08T01:08:17.326Z,21.80
2016-08-08T01:09:21.843Z,21.80
2016-08-08T01:10:27.415Z,21.79
2016-08-08T01:11:27.761Z,21.78
2016-08-08T01:12:28.728Z,21.79
2016-08-08T01:13:16.723Z,21.79
2016-08-08T01:14:22.696Z,21.79
2016-08-08T01:15:28.656Z,21.79
2016-08-08T01:16:27.499Z,21.79
2016-08-08T01:17:26.926Z,21.80
2016-08-08T01:18:14.539Z,21.79
2016-08-08T01:19:13.028Z,21.81
2016-08-08T01:20:28.508Z,21.79
2016-08-08T01:21:23.131Z,21.79
2016-08-08T01:22:26.176Z,21.78
2016-08-08T01:23:15.333Z,21.78
2016-08-08T01:24:12.915Z,21.77
2016-08-08T01:25:35.355Z,21.76
2016-08-08T01:26:33.351Z,21.77
2016-08-08T01:27:25.365Z,21.77
2016-08-08T01:28:24.969Z,21.77
2016-08-08T01:29:20.683Z,21.77
2016-08-08T01:30:20.902Z,21.77
2016-08-08T01:31:20.112Z,21.76
2016-08-08T01:32:28.007Z,21.76
2016-08-08T01:33:18.087Z,21.77
2016-08-08T01:34:19.887Z,21.77
2016-08-08T01:35:26.433Z,21.77
2016-08-08T01:36:27.304Z,21.76
2016-08-08T01:37:19.723Z,21.76
2016-08-08T01:38:25.479Z,21.76
2016-08-08T01:39:21.170Z,22.31
2016-08-08T01:40:27.884Z,22.35
2016-08-08T01:41:14.280Z,22.00
2016-08-08T01:42:25.397Z,21.85
2016-08-08T01:43:15.674Z,21.80
2016-08-08T01:44:33.572Z,22.32
2016-08-08T01:45:22.046Z,22.36
2016-08-08T01:46:42.075Z,21.84
2016-08-08T01:47:34.574Z,21.80
2016-08-08T01:48:18.153Z,21.77
2016-08-08T01:49:24.622Z,21.77
2016-08-08T01:50:26.165Z,21.76
2016-08-08T01:51:27.603Z,21.76
2016-08-08T01:52:33.204Z,21.75
2016-08-08T01:53:15.512Z,21.76
2016-08-08T01:54:22.935Z,21.76
2016-08-08T01:55:29.766Z,21.75
2016-08-08T01:56:38.280Z,21.76
2016-08-08T01:57:24.823Z,21.75
2016-08-08T01:58:12.963Z,21.75
2016-08-08T01:59:17.024Z,21.75
2016-08-08T02:00:18.570Z,21.75
2016-08-08T02:01:17.281Z,21.75
2016-08-08T02:02:13.829Z,21.75
2016-08-08T02:03:14.464Z,21.75
2016-08-08T02:04:14.813Z,21.75
2016-08-08T02:05:28.868Z,21.75
2016-08-08T02:06:21.315Z,21.74
2016-08-08T02:07:29.567Z,21.74
2016-08-08T02:08:13.548Z,21.74
2016-08-08T02:09:24.503Z,21.74
2016-08-08T02:10:28.246Z,21.75
2016-08-08T02:11:26.054Z,21.73
2016-08-08T02:12:32.942Z,21.73
2016-08-08T02:13:16.205Z,21.74
2016-08-08T02:14:13.681Z,21.74
2016-08-08T02:15:33.855Z,21.73
2016-08-08T02:16:33.866Z,21.74
2016-08-08T02:17:33.113Z,21.73
2016-08-08T02:18:16.752Z,21.74
2016-08-08T02:19:34.601Z,21.74
2016-08-08T02:20:27.754Z,21.73
2016-08-08T02:21:32.501Z,21.73
2016-08-08T02:22:33.099Z,21.73
2016-08-08T02:23:18.168Z,21.73
2016-08-08T02:24:27.604Z,21.73
2016-08-08T02:25:12.565Z,21.73
2016-08-08T02:26:34.612Z,22.26
2016-08-08T02:27:35.754Z,22.33
2016-08-08T02:28:15.868Z,22.35
2016-08-08T02:29:18.396Z,22.36
2016-08-08T02:30:26.871Z,22.35
2016-08-08T02:31:15.386Z,22.36
2016-08-08T02:32:33.775Z,22.37
2016-08-08T02:33:14.127Z,22.37
2016-08-08T02:34:19.957Z,22.37
2016-08-08T02:35:23.436Z,22.38
2016-08-08T02:36:31.034Z,22.36
2016-08-08T02:37:34.487Z,21.99
2016-08-08T02:38:18.667Z,21.86
2016-08-08T02:39:27.817Z,21.78
2016-08-08T02:40:30.803Z,21.75
2016-08-08T02:41:24.588Z,21.75
2016-08-08T02:42:22.031Z,21.74
2016-08-08T02:43:18.992Z,21.73
2016-08-08T02:44:22.099Z,21.73
2016-08-08T02:45:24.976Z,21.78
2016-08-08T02:46:31.277Z,21.72
2016-08-08T02:47:14.551Z,21.72
2016-08-08T02:48:19.703Z,21.72
2016-08-08T02:49:32.366Z,21.72
2016-08-08T02:50:27.910Z,21.73
2016-08-08T02:51:27.857Z,21.74
2016-08-08T02:52:26.040Z,21.71
2016-08-08T02:53:19.966Z,21.71
2016-08-08T02:54:25.634Z,21.71
2016-08-08T02:55:28.028Z,21.71
2016-08-08T02:56:36.911Z,21.71
2016-08-08T02:57:24.851Z,21.70
2016-08-08T02:58:17.913Z,21.71
2016-08-08T02:59:25.665Z,21.71
2016-08-08T03:00:25.893Z,21.70
2016-08-08T03:01:27.088Z,21.70
2016-08-08T03:02:25.844Z,21.71
2016-08-08T03:03:19.955Z,21.71
2016-08-08T03:04:18.110Z,21.70
2016-08-08T03:05:13.635Z,22.24
2016-08-08T03:06:17.073Z,22.29
2016-08-08T03:07:14.499Z,22.32
2016-08-08T03:08:10.502Z,22.31
2016-08-08T03:09:13.112Z,22.27
2016-08-08T03:10:12.230Z,22.33
2016-08-08T03:11:22.337Z,22.35
2016-08-08T03:12:23.376Z,22.36
2016-08-08T03:13:18.093Z,21.99
2016-08-08T03:14:27.759Z,21.80
2016-08-08T03:15:22.327Z,21.82
2016-08-08T03:16:34.047Z,21.72
2016-08-08T03:17:27.627Z,21.71
2016-08-08T03:18:16.347Z,21.70
2016-08-08T03:19:19.100Z,22.22
2016-08-08T03:20:28.532Z,22.27
2016-08-08T03:21:21.456Z,21.78
2016-08-08T03:22:26.837Z,21.73
2016-08-08T03:23:16.912Z,21.72
2016-08-08T03:24:22.172Z,21.70
2016-08-08T03:25:39.359Z,21.70
2016-08-08T03:26:39.710Z,21.70
2016-08-08T03:27:28.538Z,21.70
2016-08-08T03:28:18.768Z,21.69
2016-08-08T03:29:26.218Z,21.69
2016-08-08T03:30:39.242Z,21.73
2016-08-08T03:31:13.042Z,21.67
2016-08-08T03:32:31.741Z,21.68
2016-08-08T03:33:15.985Z,21.66
2016-08-08T03:34:25.100Z,21.67
2016-08-08T03:35:22.125Z,21.68
2016-08-08T03:36:13.643Z,21.67
2016-08-08T03:37:35.421Z,21.73
2016-08-08T03:38:16.665Z,21.68
2016-08-08T03:39:34.188Z,22.20
2016-08-08T03:40:29.898Z,21.91
2016-08-08T03:41:29.976Z,21.75
2016-08-08T03:43:13.084Z,21.69
2016-08-08T03:44:20.230Z,21.71
2016-08-08T03:45:26.214Z,21.66
2016-08-08T03:46:46.501Z,21.68
2016-08-08T03:47:16.469Z,21.66
2016-08-08T03:48:16.831Z,22.20
2016-08-08T03:49:25.880Z,22.25
2016-08-08T03:50:28.345Z,22.28
2016-08-08T03:51:20.786Z,21.76
2016-08-08T03:52:21.848Z,21.70
2016-08-08T03:53:13.416Z,21.67
2016-08-08T03:54:22.645Z,21.67
2016-08-08T03:55:22.806Z,21.66
2016-08-08T03:56:26.086Z,21.66
2016-08-08T03:58:09.731Z,21.65
2016-08-08T03:59:20.850Z,21.64
2016-08-08T04:00:19.416Z,21.65
2016-08-08T04:01:27.623Z,21.63
2016-08-08T04:02:21.930Z,21.65
2016-08-08T04:03:19.853Z,21.64
2016-08-08T04:04:25.051Z,21.65
2016-08-08T04:05:22.996Z,21.64
2016-08-08T04:06:31.093Z,21.65
2016-08-08T04:07:25.015Z,21.66
2016-08-08T04:08:14.954Z,21.64
2016-08-08T04:09:18.579Z,21.63
2016-08-08T04:10:26.726Z,21.66
2016-08-08T04:11:14.306Z,22.15
2016-08-08T04:12:17.057Z,21.68
2016-08-08T04:13:15.173Z,21.65
2016-08-08T04:14:19.197Z,21.67
2016-08-08T04:15:19.720Z,21.63
2016-08-08T04:16:11.240Z,21.62
2016-08-08T04:17:22.088Z,21.64
2016-08-08T04:18:14.774Z,21.64
2016-08-08T04:19:21.421Z,21.62
2016-08-08T04:20:41.756Z,21.63
2016-08-08T04:21:15.298Z,21.63
2016-08-08T04:22:31.311Z,21.64
2016-08-08T04:23:19.954Z,21.63
2016-08-08T04:24:27.399Z,21.63
2016-08-08T04:25:23.333Z,21.66
2016-08-08T04:26:22.708Z,21.63
2016-08-08T04:27:21.433Z,21.63
2016-08-08T04:28:14.116Z,21.63
2016-08-08T04:29:22.311Z,21.63
2016-08-08T04:30:23.649Z,21.64
2016-08-08T04:31:13.148Z,21.63
2016-08-08T04:32:26.302Z,21.62
2016-08-08T04:33:17.719Z,21.61
2016-08-08T04:34:27.478Z,21.62
2016-08-08T04:35:27.139Z,21.62
2016-08-08T04:36:34.107Z,21.70
2016-08-08T04:37:12.021Z,22.15
2016-08-08T04:38:18.876Z,21.66
2016-08-08T04:39:21.907Z,21.63
2016-08-08T04:40:23.717Z,21.62
2016-08-08T04:41:26.120Z,21.64
2016-08-08T04:42:21.246Z,21.61
2016-08-08T04:43:20.075Z,21.61
2016-08-08T04:44:28.719Z,21.61
2016-08-08T04:45:26.030Z,22.16
2016-08-08T04:46:22.352Z,22.19
2016-08-08T04:47:33.811Z,21.68
2016-08-08T04:48:19.039Z,21.64
2016-08-08T04:49:23.326Z,21.62
2016-08-08T04:50:28.444Z,21.62
2016-08-08T04:51:15.821Z,21.61
2016-08-08T04:52:33.015Z,21.62
2016-08-08T04:53:27.241Z,21.60
2016-08-08T04:54:15.339Z,21.61
2016-08-08T04:55:34.345Z,21.61
2016-08-08T04:56:13.393Z,21.59
2016-08-08T04:58:20.976Z,21.62
2016-08-08T04:59:14.115Z,21.63
2016-08-08T05:00:33.260Z,21.63
2016-08-08T05:01:27.222Z,21.62
2016-08-08T05:02:27.628Z,21.62
2016-08-08T05:03:17.856Z,21.62
2016-08-08T05:04:20.690Z,21.63
2016-08-08T05:05:27.776Z,21.63
2016-08-08T05:06:18.504Z,21.63
2016-08-08T05:07:29.042Z,21.63
2016-08-08T05:08:21.272Z,21.63
2016-08-08T05:09:20.122Z,21.63
2016-08-08T05:10:15.839Z,21.62
2016-08-08T05:11:28.308Z,21.63
2016-08-08T05:13:17.319Z,21.63
2016-08-08T05:14:14.682Z,21.62
2016-08-08T05:15:12.470Z,21.63
2016-08-08T05:16:24.892Z,22.17
2016-08-08T05:17:22.861Z,22.22
2016-08-08T05:18:17.482Z,22.25
2016-08-08T05:19:15.525Z,22.26
2016-08-08T05:20:15.762Z,22.28
2016-08-08T05:21:17.170Z,22.28
2016-08-08T05:22:12.978Z,22.28
2016-08-08T05:23:15.370Z,22.28
2016-08-08T05:24:15.307Z,22.28
2016-08-08T05:25:21.268Z,22.29
2016-08-08T05:26:23.274Z,21.96
2016-08-08T05:27:19.717Z,21.81
2016-08-08T05:28:16.563Z,21.70
2016-08-08T05:29:22.988Z,21.68
2016-08-08T05:30:22.736Z,21.66
2016-08-08T05:31:24.873Z,21.64
2016-08-08T05:32:20.046Z,21.66
2016-08-08T05:33:13.696Z,21.65
2016-08-08T05:34:25.644Z,21.64
2016-08-08T05:35:22.445Z,21.64
2016-08-08T05:36:27.884Z,21.67
2016-08-08T05:37:31.189Z,21.64
2016-08-08T05:38:24.654Z,21.64
2016-08-08T05:39:16.499Z,21.64
2016-08-08T05:40:32.250Z,21.64
2016-08-08T05:41:18.072Z,21.64
2016-08-08T05:43:21.490Z,21.64
2016-08-08T05:44:20.213Z,21.64
2016-08-08T05:45:26.261Z,21.68
2016-08-08T05:46:21.701Z,21.64
2016-08-08T05:47:31.166Z,21.65
2016-08-08T05:48:20.503Z,21.65
2016-08-08T05:49:29.331Z,21.66
2016-08-08T05:50:21.029Z,21.65
2016-08-08T05:51:32.600Z,21.65
2016-08-08T05:52:20.442Z,21.65
2016-08-08T05:53:28.092Z,21.64
2016-08-08T05:54:21.874Z,21.65
2016-08-08T05:55:27.665Z,21.66
2016-08-08T05:56:26.935Z,21.65
2016-08-08T05:57:23.123Z,21.65
2016-08-08T05:58:13.050Z,21.71
2016-08-08T05:59:23.884Z,21.65
2016-08-08T06:00:22.370Z,21.66
2016-08-08T06:01:33.040Z,21.67
2016-08-08T06:02:27.607Z,21.66
2016-08-08T06:03:22.871Z,21.66
2016-08-08T06:04:27.516Z,21.67
2016-08-08T06:05:15.288Z,21.73
2016-08-08T06:06:23.406Z,21.68
2016-08-08T06:07:15.243Z,21.68
2016-08-08T06:08:28.133Z,21.70
2016-08-08T06:09:24.222Z,21.70
2016-08-08T06:10:20.280Z,21.69
2016-08-08T06:11:13.963Z,21.70
2016-08-08T06:12:29.980Z,21.69
2016-08-08T06:13:23.347Z,21.70
2016-08-08T06:14:27.470Z,21.71
2016-08-08T06:15:22.770Z,21.71
2016-08-08T06:16:24.201Z,21.69
2016-08-08T06:17:20.569Z,21.70
2016-08-08T06:18:31.055Z,21.71
2016-08-08T06:19:32.128Z,21.75
2016-08-08T06:20:17.414Z,21.72
2016-08-08T06:21:22.069Z,21.72
2016-08-08T06:22:28.257Z,21.71
2016-08-08T06:23:33.042Z,21.72
2016-08-08T06:24:33.629Z,21.91
2016-08-08T06:25:42.313Z,21.78
2016-08-08T06:26:28.310Z,21.76
2016-08-08T06:27:31.767Z,21.79
2016-08-08T06:28:32.604Z,21.74
2016-08-08T06:29:12.362Z,21.75
2016-08-08T06:30:14.116Z,21.75
2016-08-08T06:31:13.451Z,21.74
2016-08-08T06:32:26.802Z,21.75
2016-08-08T06:33:36.849Z,21.74
2016-08-08T06:34:23.486Z,21.75
2016-08-08T06:35:26.112Z,21.75
2016-08-08T06:36:33.548Z,21.74
2016-08-08T06:37:28.370Z,21.76
2016-08-08T06:38:27.848Z,21.79
2016-08-08T06:39:13.702Z,21.95
2016-08-08T06:40:21.056Z,21.81
2016-08-08T06:41:33.617Z,21.81
2016-08-08T06:42:25.771Z,21.77
2016-08-08T06:43:27.571Z,21.75
2016-08-08T06:44:25.735Z,21.77
2016-08-08T06:45:20.650Z,21.77
2016-08-08T06:46:12.636Z,21.77
2016-08-08T06:47:14.588Z,21.77
2016-08-08T06:48:33.981Z,21.78
2016-08-08T06:49:26.833Z,21.77
2016-08-08T06:50:22.233Z,21.79
2016-08-08T06:51:33.430Z,21.78
2016-08-08T06:52:26.888Z,21.79
2016-08-08T06:53:42.336Z,21.80
2016-08-08T06:54:22.888Z,21.79
2016-08-08T06:55:19.565Z,21.83
2016-08-08T06:56:16.666Z,22.33
2016-08-08T06:57:17.974Z,22.40
2016-08-08T06:58:33.345Z,21.89
2016-08-08T06:59:13.251Z,21.85
2016-08-08T07:00:47.188Z,21.82
2016-08-08T07:01:20.962Z,21.87
2016-08-08T07:02:12.618Z,21.83
2016-08-08T07:03:20.839Z,21.82
2016-08-08T07:04:37.359Z,21.82
2016-08-08T07:05:21.667Z,21.81
2016-08-08T07:06:30.272Z,21.82
2016-08-08T07:07:37.312Z,21.82
2016-08-08T07:08:41.736Z,21.83
2016-08-08T07:09:14.070Z,21.81
2016-08-08T07:10:35.395Z,22.04
2016-08-08T07:11:20.236Z,21.87
2016-08-08T07:12:30.449Z,21.84
2016-08-08T07:13:27.297Z,21.83
2016-08-08T07:14:27.159Z,21.83
2016-08-08T07:15:37.039Z,21.83
2016-08-08T07:16:26.504Z,21.83
2016-08-08T07:17:24.479Z,21.82
2016-08-08T07:18:11.958Z,21.82
2016-08-08T07:19:31.119Z,21.83
2016-08-08T07:20:27.823Z,21.83
2016-08-08T07:21:34.506Z,21.82
2016-08-08T07:22:25.700Z,21.83
2016-08-08T07:23:31.036Z,21.84
2016-08-08T07:24:21.962Z,21.84
2016-08-08T07:25:21.247Z,21.84
2016-08-08T07:26:31.219Z,21.84
2016-08-08T07:27:33.182Z,21.85
2016-08-08T07:28:32.363Z,21.89
2016-08-08T07:29:24.287Z,21.86
2016-08-08T07:30:29.786Z,21.86
2016-08-08T07:31:28.061Z,21.87
2016-08-08T07:32:33.026Z,21.88
2016-08-08T07:33:28.043Z,21.87
2016-08-08T07:34:24.763Z,21.87
2016-08-08T07:35:20.687Z,21.87
2016-08-08T07:36:46.655Z,21.88
2016-08-08T07:37:34.407Z,21.87
2016-08-08T07:38:26.366Z,21.87
2016-08-08T07:39:27.588Z,21.87
2016-08-08T07:40:26.174Z,22.40
2016-08-08T07:41:25.156Z,22.46
2016-08-08T07:42:26.393Z,21.96
2016-08-08T07:44:33.685Z,21.93
2016-08-08T07:45:23.813Z,21.88
2016-08-08T07:46:28.557Z,21.88
2016-08-08T07:47:12.377Z,21.88
2016-08-08T07:48:22.687Z,21.87
2016-08-08T07:49:26.559Z,21.87
2016-08-08T07:50:27.555Z,21.87
2016-08-08T07:51:26.350Z,21.86
2016-08-08T07:52:21.678Z,21.86
2016-08-08T07:53:26.202Z,21.86
2016-08-08T07:54:31.901Z,21.87
2016-08-08T07:55:33.112Z,21.92
2016-08-08T07:56:33.172Z,21.87
2016-08-08T07:57:32.100Z,21.87
2016-08-08T07:58:27.219Z,21.87
2016-08-08T07:59:27.060Z,21.87
2016-08-08T08:00:34.116Z,21.87
2016-08-08T08:01:32.202Z,21.87
2016-08-08T08:02:37.207Z,21.87
2016-08-08T08:03:30.396Z,21.87
2016-08-08T08:04:19.620Z,22.43
2016-08-08T08:05:44.162Z,22.48
2016-08-08T08:06:22.891Z,21.97
2016-08-08T08:07:33.109Z,21.93
2016-08-08T08:08:37.368Z,21.91
2016-08-08T08:09:21.710Z,21.89
2016-08-08T08:10:26.261Z,22.43
2016-08-08T08:11:30.104Z,22.50
2016-08-08T08:12:26.910Z,21.98
2016-08-08T08:13:31.171Z,21.94
2016-08-08T08:14:13.217Z,21.92
2016-08-08T08:15:28.882Z,21.91
2016-08-08T08:16:12.353Z,21.91
2016-08-08T08:17:15.358Z,21.91
2016-08-08T08:18:15.490Z,21.90
2016-08-08T08:19:22.983Z,22.44
2016-08-08T08:20:32.697Z,22.49
2016-08-08T08:21:25.923Z,21.98
2016-08-08T08:22:33.443Z,21.94
2016-08-08T08:23:37.393Z,21.92
2016-08-08T08:24:36.691Z,22.15
2016-08-08T08:25:36.301Z,21.97
2016-08-08T08:26:31.222Z,21.94
2016-08-08T08:27:27.821Z,21.93
2016-08-08T08:28:38.814Z,21.92
2016-08-08T08:29:22.432Z,21.92
2016-08-08T08:30:33.385Z,21.95
2016-08-08T08:31:27.049Z,22.46
2016-08-08T08:32:13.949Z,22.51
2016-08-08T08:33:23.098Z,22.55
2016-08-08T08:34:27.106Z,22.55
2016-08-08T08:35:32.688Z,22.57
2016-08-08T08:36:35.497Z,22.56
2016-08-08T08:37:28.018Z,22.57
2016-08-08T08:38:23.026Z,22.58
2016-08-08T08:39:25.337Z,22.57
2016-08-08T08:40:15.127Z,22.59
2016-08-08T08:41:21.109Z,22.08
2016-08-08T08:42:40.418Z,22.52
2016-08-08T08:43:35.348Z,22.57
2016-08-08T08:44:36.506Z,22.57
2016-08-08T08:45:19.625Z,22.57
2016-08-08T08:46:32.791Z,22.58
2016-08-08T08:47:39.640Z,22.59
2016-08-08T08:48:26.397Z,22.21
2016-08-08T08:49:27.989Z,22.05
2016-08-08T08:50:33.832Z,21.99
2016-08-08T08:51:26.520Z,21.97
2016-08-08T08:52:31.764Z,21.95
2016-08-08T08:53:28.854Z,21.95
2016-08-08T08:54:27.523Z,21.98
2016-08-08T08:55:36.664Z,21.95
2016-08-08T08:56:15.484Z,21.93
2016-08-08T08:57:32.806Z,21.94
2016-08-08T08:59:25.264Z,21.94
2016-08-08T09:00:33.402Z,21.93
2016-08-08T09:01:28.936Z,21.95
2016-08-08T09:02:13.265Z,21.94
2016-08-08T09:03:34.582Z,21.94
2016-08-08T09:04:33.026Z,21.94
2016-08-08T09:05:13.589Z,21.96
2016-08-08T09:06:32.074Z,21.94
2016-08-08T09:07:32.640Z,22.49
2016-08-08T09:08:22.496Z,22.55
2016-08-08T09:09:13.826Z,22.57
2016-08-08T09:10:13.804Z,22.22
2016-08-08T09:11:27.918Z,22.05
2016-08-08T09:12:32.153Z,22.01
2016-08-08T09:14:28.179Z,21.97
2016-08-08T09:15:20.010Z,22.01
2016-08-08T09:16:20.967Z,21.97
2016-08-08T09:17:22.564Z,21.96
2016-08-08T09:18:34.780Z,21.96
2016-08-08T09:19:33.108Z,21.96
2016-08-08T09:20:33.649Z,21.96
2016-08-08T09:21:29.233Z,21.97
2016-08-08T09:22:34.352Z,21.96
2016-08-08T09:23:28.753Z,21.97
2016-08-08T09:24:26.625Z,21.97
2016-08-08T09:25:28.738Z,21.97
2016-08-08T09:26:32.570Z,21.96
2016-08-08T09:27:35.857Z,21.96
2016-08-08T09:28:34.640Z,21.97
2016-08-08T09:29:33.992Z,21.97
2016-08-08T09:30:27.711Z,21.97
2016-08-08T09:31:34.358Z,21.96
2016-08-08T09:32:38.977Z,22.05
2016-08-08T09:33:21.954Z,22.53
2016-08-08T09:34:20.715Z,22.58
2016-08-08T09:35:32.654Z,22.32
2016-08-08T09:36:32.931Z,22.07
2016-08-08T09:37:39.607Z,22.02
2016-08-08T09:38:22.135Z,22.01
2016-08-08T09:39:26.408Z,22.00
2016-08-08T09:40:34.669Z,21.99
2016-08-08T09:41:20.112Z,21.99
2016-08-08T09:42:27.942Z,22.00
2016-08-08T09:44:33.009Z,21.98
2016-08-08T09:45:22.223Z,21.99
2016-08-08T09:46:31.684Z,21.98
2016-08-08T09:47:26.435Z,21.99
2016-08-08T09:48:12.355Z,22.00
2016-08-08T09:49:41.142Z,22.00
2016-08-08T09:50:28.812Z,22.00
2016-08-08T09:51:42.720Z,22.00
2016-08-08T09:52:31.735Z,22.00
2016-08-08T09:53:24.128Z,22.00
2016-08-08T09:54:19.621Z,22.00
2016-08-08T09:55:26.849Z,22.04
2016-08-08T09:56:20.506Z,22.00
2016-08-08T09:57:26.711Z,22.03
2016-08-08T09:59:21.224Z,21.99
2016-08-08T10:00:29.243Z,22.00
2016-08-08T10:01:33.734Z,22.00
2016-08-08T10:02:31.696Z,22.01
2016-08-08T10:03:26.082Z,22.01
2016-08-08T10:04:35.125Z,22.00
2016-08-08T10:05:13.245Z,22.00
2016-08-08T10:06:41.764Z,22.01
2016-08-08T10:07:22.158Z,22.01
2016-08-08T10:08:12.929Z,22.01
2016-08-08T10:09:35.868Z,22.07
2016-08-08T10:10:26.017Z,22.01
2016-08-08T10:11:28.215Z,22.00
2016-08-08T10:12:27.224Z,22.01
2016-08-08T10:14:19.720Z,22.01
2016-08-08T10:15:31.676Z,22.02
2016-08-08T10:16:34.646Z,22.01
2016-08-08T10:17:31.482Z,22.02
2016-08-08T10:18:33.254Z,22.02
2016-08-08T10:19:29.373Z,22.02
2016-08-08T10:20:31.117Z,22.02
2016-08-08T10:21:30.170Z,22.02
2016-08-08T10:22:33.908Z,22.02
2016-08-08T10:23:24.704Z,22.02
2016-08-08T10:24:34.071Z,22.01
2016-08-08T10:25:29.179Z,22.56
2016-08-08T10:26:38.468Z,22.25
2016-08-08T10:27:35.028Z,22.10
2016-08-08T10:28:23.543Z,22.06
2016-08-08T10:29:17.781Z,22.02
2016-08-08T10:30:26.999Z,22.03
2016-08-08T10:31:26.037Z,22.07
2016-08-08T10:32:34.651Z,22.56
2016-08-08T10:33:22.925Z,22.61
2016-08-08T10:34:33.483Z,22.58
2016-08-08T10:35:37.767Z,22.67
2016-08-08T10:36:34.128Z,22.70
2016-08-08T10:37:27.718Z,22.70
2016-08-08T10:38:26.922Z,22.72
2016-08-08T10:39:19.344Z,22.73
2016-08-08T10:40:28.187Z,22.74
2016-08-08T10:41:32.330Z,22.75
2016-08-08T10:42:31.599Z,22.76
2016-08-08T10:44:29.867Z,22.76
2016-08-08T10:45:29.094Z,22.41
2016-08-08T10:46:37.646Z,22.24
2016-08-08T10:47:28.860Z,22.18
2016-08-08T10:48:31.635Z,22.17
2016-08-08T10:49:19.272Z,22.15
2016-08-08T10:50:18.276Z,22.15
2016-08-08T10:51:28.127Z,22.18
2016-08-08T10:52:34.039Z,22.33
2016-08-08T10:53:34.383Z,22.20
2016-08-08T10:54:27.455Z,22.15
2016-08-08T10:55:32.147Z,22.18
2016-08-08T10:56:28.479Z,22.15
2016-08-08T10:57:32.671Z,22.14
2016-08-08T10:58:31.734Z,22.16
2016-08-08T10:59:34.711Z,22.19
2016-08-08T11:00:22.708Z,22.16
2016-08-08T11:01:26.843Z,22.16
2016-08-08T11:02:33.965Z,22.17
2016-08-08T11:03:34.509Z,22.17
2016-08-08T11:04:35.525Z,22.18
2016-08-08T11:05:21.024Z,22.17
2016-08-08T11:06:34.185Z,22.20
2016-08-08T11:07:33.824Z,22.18
2016-08-08T11:08:27.718Z,22.16
2016-08-08T11:09:23.825Z,22.17
2016-08-08T11:10:17.865Z,22.17
2016-08-08T11:11:27.159Z,22.17
2016-08-08T11:12:24.545Z,22.17
2016-08-08T11:13:12.135Z,22.17
2016-08-08T11:14:14.435Z,22.16
2016-08-08T11:15:27.909Z,22.70
2016-08-08T11:16:33.231Z,22.76
2016-08-08T11:17:11.070Z,22.79
2016-08-08T11:18:34.082Z,22.80
2016-08-08T11:19:32.154Z,22.80
2016-08-08T11:20:32.220Z,22.81
2016-08-08T11:21:25.751Z,22.44
2016-08-08T11:22:30.675Z,22.30
2016-08-08T11:23:30.537Z,22.75
2016-08-08T11:24:26.818Z,22.79
2016-08-08T11:25:18.391Z,22.79
2016-08-08T11:26:22.796Z,22.79
2016-08-08T11:27:29.225Z,22.81
2016-08-08T11:28:24.907Z,22.27
2016-08-08T11:29:33.866Z,22.21
2016-08-08T11:30:31.597Z,22.19
2016-08-08T11:31:22.805Z,22.17
2016-08-08T11:32:23.382Z,22.17
2016-08-08T11:33:35.139Z,22.16
2016-08-08T11:34:21.809Z,22.16
2016-08-08T11:35:30.534Z,22.16
2016-08-08T11:36:16.629Z,22.16
2016-08-08T11:37:34.632Z,22.15
2016-08-08T11:38:14.154Z,22.16
2016-08-08T11:39:17.143Z,22.16
2016-08-08T11:40:27.500Z,22.18
2016-08-08T11:41:34.193Z,22.18
2016-08-08T11:42:34.734Z,22.19
2016-08-08T11:43:38.596Z,22.22
2016-08-08T11:44:32.661Z,22.19
2016-08-08T11:45:31.429Z,22.19
2016-08-08T11:46:18.550Z,22.20
2016-08-08T11:47:40.340Z,22.19
2016-08-08T11:48:31.651Z,22.20
2016-08-08T11:49:33.134Z,22.20
2016-08-08T11:50:18.552Z,22.19
2016-08-08T11:51:12.403Z,22.19
2016-08-08T11:52:30.403Z,22.20
2016-08-08T11:53:33.696Z,22.19
2016-08-08T11:54:32.046Z,22.19
2016-08-08T11:55:12.761Z,22.18
2016-08-08T11:56:26.258Z,22.73
2016-08-08T11:57:32.437Z,22.78
2016-08-08T11:58:13.541Z,22.81
2016-08-08T11:59:37.954Z,22.29
2016-08-08T12:00:32.361Z,22.24
2016-08-08T12:01:10.835Z,22.21
2016-08-08T12:02:14.719Z,22.20
2016-08-08T12:03:31.551Z,22.19
2016-08-08T12:04:32.921Z,22.22
2016-08-08T12:05:27.349Z,22.21
2016-08-08T12:06:20.233Z,22.19
2016-08-08T12:07:18.067Z,22.21
2016-08-08T12:08:35.851Z,22.19
2016-08-08T12:09:18.847Z,22.19
2016-08-08T12:10:32.332Z,22.21
2016-08-08T12:11:25.180Z,22.19
2016-08-08T12:12:13.845Z,22.18
2016-08-08T12:13:27.354Z,22.18
2016-08-08T12:15:14.565Z,22.73
2016-08-08T12:16:13.606Z,22.77
2016-08-08T12:17:34.383Z,22.80
2016-08-08T12:18:19.063Z,22.82
2016-08-08T12:19:29.876Z,22.83
2016-08-08T12:20:21.589Z,22.83
2016-08-08T12:21:15.389Z,22.30
2016-08-08T12:22:27.663Z,22.24
2016-08-08T12:23:20.567Z,22.22
2016-08-08T12:24:21.676Z,22.24
2016-08-08T12:25:25.665Z,22.20
2016-08-08T12:26:25.570Z,22.20
2016-08-08T12:27:27.995Z,22.18
2016-08-08T12:28:23.519Z,22.18
2016-08-08T12:29:24.681Z,22.72
2016-08-08T12:30:37.958Z,22.27
2016-08-08T12:31:12.300Z,22.21
2016-08-08T12:32:27.768Z,22.20
2016-08-08T12:33:28.023Z,22.19
2016-08-08T12:34:29.420Z,22.19
2016-08-08T12:35:15.030Z,22.22
2016-08-08T12:36:29.223Z,22.18
2016-08-08T12:37:27.013Z,22.18
2016-08-08T12:38:27.689Z,22.19
2016-08-08T12:39:32.321Z,22.19
2016-08-08T12:40:28.383Z,22.24
2016-08-08T12:41:27.926Z,22.19
2016-08-08T12:42:34.863Z,22.19
2016-08-08T12:43:19.216Z,22.19
2016-08-08T12:45:26.572Z,22.79
2016-08-08T12:46:25.738Z,22.81
2016-08-08T12:47:31.890Z,22.82
2016-08-08T12:48:19.540Z,22.84
2016-08-08T12:49:34.441Z,22.52
2016-08-08T12:50:13.858Z,22.33
2016-08-08T12:51:22.843Z,22.26
2016-08-08T12:52:24.063Z,22.24
2016-08-08T12:53:11.834Z,22.22
2016-08-08T12:54:27.829Z,22.28
2016-08-08T12:55:26.437Z,22.75
2016-08-08T12:56:20.364Z,22.80
2016-08-08T12:57:34.695Z,22.83
2016-08-08T12:58:20.539Z,22.84
2016-08-08T13:00:19.048Z,22.85
2016-08-08T13:01:34.957Z,22.87
2016-08-08T13:02:28.119Z,22.87
2016-08-08T13:03:28.485Z,22.87
2016-08-08T13:04:33.543Z,22.87
2016-08-08T13:05:39.016Z,22.86
2016-08-08T13:06:13.774Z,22.87
2016-08-08T13:07:14.195Z,22.87